.
WxDataArchive / Data Records for 2007-09-11
2007-09-10 September 2007 2007-09-12

Data Records for Tuesday, 11 September 2007

Time	Temp	Chill	HIndex	Humid	Dewpt	 Wind 	HiWind	WindDir	Rain 	Barom 
-----	----	-----	------	-----	-----	------	------	-------	-----	----- 
00:00	64.3	64.3	64.3	85	59.7	0	2	338	0.00	29.838 
00:05	63.9	63.9	63.9	86	59.6	0	1	338	0.00	29.837 
00:10	63.5	63.5	63.5	86	59.2	1	3	292	0.00	29.837 
00:15	63.2	63.2	63.2	86	58.9	0	3	292	0.00	29.823 
00:20	62.9	62.9	62.9	87	59.0	0	1	270	0.01	29.820 
00:25	62.6	62.6	62.6	88	59.0	0	1	270	0.01	29.817 
00:30	62.3	62.3	62.3	90	59.3	0	1	270	0.00	29.817 
00:35	62.1	62.1	62.1	90	59.1	0	1	270	0.00	29.820 
00:40	61.8	61.8	61.8	90	58.8	0	1	248	0.00	29.812 
00:45	61.6	61.6	61.6	91	58.9	0	1	248	0.00	29.813 
00:50	61.6	61.6	61.6	91	58.9	0	1	248	0.00	29.812 
00:55	61.5	61.5	61.5	91	58.8	0	1	248	0.00	29.816 
01:00	61.5	61.5	61.5	91	58.8	0	0	---	0.00	29.811 
01:05	61.5	61.5	61.5	91	58.8	0	0	---	0.00	29.813 
01:10	61.5	61.5	61.5	91	58.8	0	1	248	0.00	29.809 
01:15	61.5	61.5	61.5	91	58.8	0	0	---	0.00	29.807 
01:20	61.3	61.3	61.3	91	58.6	0	1	248	0.00	29.809 
01:25	61.3	61.3	61.3	91	58.6	0	0	---	0.00	29.808 
01:30	61.3	61.3	61.3	92	59.0	0	0	---	0.00	29.805 
01:35	61.3	61.3	61.3	92	59.0	0	0	---	0.00	29.803 
01:40	61.3	61.3	61.3	92	59.0	0	1	248	0.00	29.799 
01:45	61.3	61.3	61.3	92	59.0	0	0	---	0.00	29.799 
01:50	61.3	61.3	61.3	92	59.0	0	0	---	0.00	29.795 
01:55	61.3	61.3	61.3	92	59.0	0	1	248	0.00	29.803 
02:00	61.3	61.3	61.3	92	59.0	1	5	202	0.04	29.819 
02:05	61.3	61.3	61.3	93	59.3	0	2	202	0.01	29.810 
02:10	61.2	61.2	61.2	93	59.2	0	1	202	0.00	29.809 
02:15	61.0	61.0	61.0	94	59.3	0	1	202	0.01	29.798 
02:20	60.9	60.9	60.9	94	59.2	0	1	202	0.00	29.794 
02:25	60.7	60.7	60.7	94	59.0	0	0	---	0.00	29.795 
02:30	60.7	60.7	60.7	94	59.0	0	0	---	0.00	29.793 
02:35	60.7	60.7	60.7	95	59.3	0	1	202	0.00	29.804 
02:40	60.7	60.7	60.7	95	59.3	0	1	202	0.00	29.807 
02:45	60.5	60.5	60.5	95	59.1	0	1	338	0.01	29.792 
02:50	60.5	60.5	60.5	95	59.1	0	1	338	0.01	29.795 
02:55	60.4	60.4	60.4	95	59.0	0	1	338	0.02	29.794 
03:00	60.4	60.4	60.4	95	59.0	0	1	338	0.02	29.796 
03:05	60.2	60.2	60.2	96	59.1	0	1	338	0.03	29.794 
03:10	60.2	60.2	60.2	96	59.1	0	0	---	0.02	29.795 
03:15	60.2	60.2	60.2	96	59.1	0	1	338	0.01	29.794 
03:20	59.9	59.9	59.9	96	58.8	0	1	338	0.01	29.793 
03:25	59.9	59.9	59.9	96	58.8	0	1	338	0.01	29.793 
03:30	59.9	59.9	59.9	96	58.8	0	1	338	0.02	29.794 
03:35	59.9	59.9	59.9	96	58.8	0	1	338	0.00	29.794 
03:40	59.9	59.9	59.9	96	58.8	0	1	338	0.00	29.792 
03:45	59.9	59.9	59.9	96	58.8	0	1	338	0.01	29.785 
03:50	59.8	59.8	59.8	96	58.7	0	1	338	0.00	29.783 
03:55	59.8	59.8	59.8	96	58.7	0	1	338	0.01	29.784 
04:00	59.6	59.6	59.6	96	58.5	0	1	338	0.00	29.782 
04:05	59.6	59.6	59.6	96	58.5	0	1	338	0.00	29.783 
04:10	59.6	59.6	59.6	96	58.5	0	1	338	0.01	29.786 
04:15	59.8	59.8	59.8	96	58.7	0	1	338	0.00	29.783 
04:20	59.6	59.6	59.6	96	58.5	0	1	338	0.00	29.781 
04:25	59.6	59.6	59.6	97	58.7	0	1	338	0.00	29.779 
04:30	59.6	59.6	59.6	97	58.7	0	1	338	0.01	29.780 
04:35	59.6	59.6	59.6	97	58.7	0	1	338	0.00	29.777 
04:40	59.6	59.6	59.6	97	58.7	0	1	338	0.00	29.775 
04:45	59.5	59.5	59.5	97	58.6	0	1	338	0.01	29.774 
04:50	59.5	59.5	59.5	97	58.6	0	1	338	0.00	29.773 
04:55	59.5	59.5	59.5	97	58.6	0	1	338	0.00	29.769 
05:00	59.5	59.5	59.5	97	58.6	0	2	315	0.00	29.775 
05:05	59.5	59.5	59.5	97	58.6	0	2	315	0.00	29.776 
05:10	59.5	59.5	59.5	97	58.6	0	1	315	0.00	29.775 
05:15	59.3	59.3	59.3	97	58.4	0	1	315	0.00	29.776 
05:20	59.3	59.3	59.3	97	58.4	0	1	315	0.00	29.778 
05:25	59.3	59.3	59.3	97	58.4	0	2	315	0.00	29.777 
05:30	59.3	59.3	59.3	97	58.4	0	2	315	0.00	29.775 
05:35	59.3	59.3	59.3	97	58.4	0	2	315	0.00	29.778 
05:40	59.2	59.2	59.2	97	58.3	0	2	315	0.00	29.777 
05:45	59.2	59.2	59.2	97	58.3	0	1	315	0.00	29.778 
05:50	59.3	59.3	59.3	97	58.4	0	1	315	0.00	29.779 
05:55	59.2	59.2	59.2	97	58.3	0	1	315	0.00	29.779 
06:00	59.2	59.2	59.2	97	58.3	0	2	315	0.00	29.779 
06:05	59.2	59.2	59.2	97	58.3	0	3	292	0.00	29.782 
06:10	59.2	59.2	59.2	97	58.3	0	1	292	0.00	29.783 
06:15	59.2	59.2	59.2	97	58.3	0	1	292	0.00	29.784 
06:20	59.2	59.2	59.2	97	58.3	0	1	292	0.00	29.786 
06:25	59.2	59.2	59.2	97	58.3	0	1	292	0.00	29.785 
06:30	59.2	59.2	59.2	97	58.3	0	1	292	0.00	29.783 
06:35	59.0	59.0	59.0	97	58.1	0	1	292	0.00	29.784 
06:40	59.0	59.0	59.0	97	58.1	0	2	292	0.00	29.787 
06:45	59.0	59.0	59.0	97	58.1	0	1	270	0.00	29.787 
06:50	59.0	59.0	59.0	97	58.1	0	1	270	0.00	29.788 
06:55	58.9	58.9	58.9	97	58.0	0	1	270	0.00	29.789 
07:00	58.9	58.9	58.9	97	58.0	0	2	270	0.00	29.788 
07:05	58.9	58.9	58.9	97	58.0	0	2	270	0.00	29.789 
07:10	59.0	59.0	59.0	97	58.1	0	1	270	0.00	29.791 
07:15	59.0	59.0	59.0	97	58.1	0	2	270	0.00	29.791 
07:20	58.9	58.9	58.9	97	58.0	0	1	315	0.00	29.793 
07:25	58.6	58.6	58.6	96	57.5	0	1	315	0.00	29.796 
07:30	58.4	58.4	58.4	96	57.3	0	1	315	0.00	29.795 
07:35	58.4	58.4	58.4	96	57.3	0	1	315	0.00	29.798 
07:40	58.7	58.7	58.7	96	57.6	0	1	315	0.00	29.794 
07:45	58.7	58.7	58.7	96	57.6	0	1	315	0.00	29.791 
07:50	58.6	58.6	58.6	95	57.2	0	1	315	0.00	29.794 
07:55	58.9	58.9	58.9	95	57.5	0	2	315	0.00	29.794 
08:00	59.0	59.0	59.0	94	57.3	0	3	315	0.00	29.795 
08:05	59.3	59.3	59.3	94	57.6	0	1	270	0.00	29.796 
08:10	59.8	59.8	59.8	94	58.1	0	2	270	0.00	29.796 
08:15	59.6	59.6	59.6	93	57.6	1	2	338	0.00	29.798 
08:20	59.5	59.5	59.5	91	56.9	1	2	292	0.00	29.798 
08:25	59.3	59.3	59.3	90	56.4	0	2	315	0.00	29.801 
08:30	59.3	59.3	59.3	90	56.4	0	3	315	0.00	29.799 
08:35	59.5	59.5	59.5	90	56.6	0	1	315	0.00	29.797 
08:40	59.6	59.6	59.6	88	56.0	0	2	315	0.00	29.801 
08:45	59.9	59.9	59.9	88	56.3	1	4	292	0.00	29.805 
08:50	59.6	59.6	59.6	86	55.4	1	4	315	0.00	29.810 
08:55	59.9	59.9	59.9	85	55.4	1	3	292	0.00	29.813 
09:00	60.5	60.5	60.5	84	55.6	1	4	315	0.00	29.813 
09:05	60.7	60.7	60.7	82	55.2	1	3	315	0.00	29.814 
09:10	60.5	60.5	60.5	82	55.0	1	5	292	0.00	29.814 
09:15	61.0	61.0	61.0	84	56.1	1	3	248	0.00	29.814 
09:20	61.5	61.5	61.5	82	55.9	1	4	248	0.00	29.814 
09:25	62.0	62.0	62.0	79	55.4	1	3	292	0.00	29.814 
09:30	62.0	62.0	62.0	74	53.6	2	5	292	0.00	29.814 
09:35	61.8	61.8	61.8	75	53.8	1	4	270	0.00	29.813 
09:40	61.5	61.5	61.5	77	54.2	1	3	0	0.00	29.811 
09:45	61.0	61.0	61.0	78	54.1	2	4	315	0.00	29.812 
09:50	60.7	60.7	60.7	79	54.1	1	4	270	0.00	29.814 
09:55	61.0	61.0	61.0	79	54.4	1	5	315	0.00	29.815 
10:00	61.5	61.5	61.5	77	54.2	1	4	315	0.00	29.815 
10:05	61.6	61.6	61.6	78	54.7	1	3	292	0.00	29.814 
10:10	61.8	61.8	61.8	77	54.5	1	3	225	0.00	29.813 
10:15	61.8	61.8	61.8	76	54.1	1	4	292	0.00	29.813 
10:20	61.2	61.2	61.2	77	53.9	1	4	315	0.00	29.813 
10:25	60.9	60.9	60.9	78	54.0	1	2	292	0.00	29.814 
10:30	61.0	61.0	61.0	79	54.4	1	3	292	0.00	29.816 
10:35	61.6	61.6	61.6	80	55.4	1	2	292	0.00	29.814 
10:40	62.0	62.0	62.0	77	54.7	1	4	315	0.00	29.812 
10:45	61.8	61.8	61.8	77	54.5	1	3	315	0.00	29.810 
10:50	62.0	62.0	62.0	77	54.7	1	3	270	0.00	29.812 
10:55	61.8	61.8	61.8	76	54.1	2	3	270	0.00	29.811 
11:00	62.1	62.1	62.1	78	55.2	1	4	270	0.00	29.811 
11:05	62.4	62.4	62.4	73	53.6	2	5	270	0.00	29.813 
11:10	62.7	62.7	62.7	72	53.5	2	4	315	0.00	29.815 
11:15	62.9	62.9	62.9	73	54.1	2	4	270	0.00	29.814 
11:20	63.9	63.9	63.9	74	55.4	2	4	270	0.00	29.809 
11:25	64.5	64.5	64.5	73	55.6	2	4	270	0.00	29.808 
11:30	64.7	64.7	64.7	70	54.7	2	4	315	0.00	29.804 
11:35	64.7	64.7	64.7	71	55.1	2	4	248	0.00	29.798 
11:40	64.5	64.5	64.5	67	53.3	2	3	315	0.00	29.799 
11:45	64.7	64.7	64.7	71	55.1	1	4	270	0.00	29.799 
11:50	64.7	64.7	64.7	68	53.9	2	6	270	0.00	29.799 
11:55	65.3	65.3	65.3	67	54.1	2	4	270	0.00	29.798 
12:00	66.0	66.0	66.0	65	53.9	2	6	270	0.00	29.797 
12:05	66.6	66.6	66.6	61	52.7	2	5	270	0.00	29.796 
12:10	66.4	66.4	66.4	58	51.2	2	4	248	0.00	29.794 
12:15	66.1	66.1	66.1	60	51.8	3	6	270	0.00	29.792 
12:20	66.3	66.3	66.3	57	50.6	3	5	248	0.00	29.789 
12:25	66.3	66.3	66.3	55	49.6	3	7	270	0.00	29.789 
12:30	66.6	66.6	66.6	56	50.4	2	4	270	0.00	29.789 
12:35	67.1	67.1	67.1	55	50.4	2	4	270	0.00	29.786 
12:40	66.9	66.9	66.9	53	49.2	2	4	315	0.00	29.788 
12:45	66.8	66.8	66.8	55	50.1	3	5	270	0.00	29.793 
12:50	66.9	66.9	66.9	55	50.2	3	5	248	0.00	29.789 
12:55	67.3	67.3	67.3	55	50.6	3	5	270	0.00	29.782 
13:00	67.4	67.4	67.4	52	49.2	3	5	270	0.00	29.783 
13:05	67.4	67.4	67.4	56	51.1	2	5	292	0.00	29.781 
13:10	67.6	67.6	67.6	53	49.9	2	6	270	0.00	29.778 
13:15	67.8	67.8	67.8	53	50.0	3	7	248	0.00	29.782 
13:20	67.8	67.8	67.8	51	49.0	3	6	270	0.00	29.781 
13:25	67.9	67.9	67.9	50	48.6	2	6	248	0.00	29.775 
13:30	68.3	68.3	68.3	50	48.9	3	6	270	0.00	29.774 
13:35	68.6	68.6	68.6	51	49.7	2	5	248	0.00	29.772 
13:40	68.8	68.8	68.8	50	49.4	2	5	270	0.00	29.768 
13:45	68.6	68.6	68.6	52	50.3	2	6	248	0.00	29.766 
13:50	69.1	69.1	69.1	51	50.2	2	4	270	0.00	29.765 
13:55	69.1	69.1	69.1	48	48.6	3	7	270	0.00	29.767 
14:00	69.1	69.1	69.1	47	48.0	3	9	270	0.00	29.766 
14:05	69.3	69.3	69.3	47	48.2	3	7	270	0.00	29.767 
14:10	69.6	69.6	69.6	50	50.1	3	6	270	0.00	29.768 
14:15	69.8	69.8	69.8	50	50.3	2	5	270	0.00	29.767 
14:20	70.1	70.1	70.1	46	48.3	3	6	270	0.00	29.770 
14:25	69.9	69.9	69.9	47	48.7	3	9	270	0.00	29.768 
14:30	69.8	69.8	69.8	47	48.6	3	9	270	0.00	29.767 
14:35	69.9	69.9	69.9	47	48.7	3	7	270	0.00	29.766 
14:40	69.9	69.9	69.9	48	49.3	3	6	248	0.00	29.764 
14:45	69.9	69.9	69.9	46	48.2	3	10	270	0.00	29.763 
14:50	70.1	70.1	70.1	45	47.8	4	6	270	0.00	29.765 
14:55	69.9	69.9	69.9	48	49.3	2	4	270	0.00	29.761 
15:00	70.4	70.4	70.4	50	50.9	2	5	270	0.00	29.758 
15:05	70.4	70.4	70.4	47	49.2	3	10	270	0.00	29.752 
15:10	70.3	70.3	70.3	46	48.5	3	6	270	0.00	29.750 
15:15	70.4	70.4	70.4	49	50.3	2	4	270	0.00	29.747 
15:20	70.4	70.4	70.4	46	48.6	4	7	270	0.00	29.747 
15:25	70.3	70.3	70.3	46	48.5	3	10	270	0.00	29.749 
15:30	70.3	70.3	70.3	49	50.2	3	5	270	0.00	29.746 
15:35	70.6	70.6	70.6	46	48.8	3	6	270	0.00	29.748 
15:40	70.3	70.3	70.3	48	49.7	4	6	292	0.00	29.748 
15:45	70.6	70.6	70.6	49	50.5	2	5	270	0.00	29.749 
15:50	70.9	70.9	70.9	46	49.1	3	7	270	0.00	29.746 
15:55	71.1	71.1	71.1	45	48.7	4	10	270	0.00	29.747 
16:00	71.3	71.3	71.3	47	50.0	3	9	270	0.00	29.747 
16:05	71.3	71.3	71.3	49	51.1	3	9	270	0.00	29.743 
16:10	71.1	71.1	71.1	46	49.3	4	9	270	0.00	29.742 
16:15	71.1	71.1	71.1	46	49.3	4	9	270	0.00	29.743 
16:20	71.3	71.3	71.3	46	49.4	3	9	270	0.00	29.741 
16:25	71.5	71.5	71.5	46	49.6	3	9	270	0.00	29.737 
16:30	71.1	71.1	71.1	44	48.1	4	9	270	0.00	29.742 
16:35	71.5	71.5	71.5	44	48.4	3	6	270	0.00	29.744 
16:40	71.6	71.6	71.6	42	47.3	5	9	270	0.00	29.745 
16:45	71.5	71.5	71.5	44	48.4	3	7	292	0.00	29.746 
16:50	71.3	71.3	71.3	44	48.2	4	7	270	0.00	29.747 
16:55	71.1	71.1	71.1	47	49.8	3	7	270	0.00	29.749 
17:00	71.1	71.1	71.1	46	49.3	3	6	270	0.00	29.749 
17:05	70.9	70.9	70.9	44	47.9	3	7	270	0.00	29.751 
17:10	70.6	70.6	70.6	46	48.8	3	6	270	0.00	29.752 
17:15	70.3	70.3	70.3	45	47.9	4	10	270	0.00	29.755 
17:20	70.1	70.1	70.1	44	47.2	2	5	270	0.00	29.757 
17:25	70.3	70.3	70.3	43	46.7	3	6	270	0.00	29.764 
17:30	70.3	70.3	70.3	42	46.1	4	9	270	0.00	29.766 
17:35	70.3	70.3	70.3	41	45.5	3	9	270	0.00	29.765 
17:40	70.1	70.1	70.1	42	45.9	2	5	270	0.00	29.768 
17:45	69.9	69.9	69.9	43	46.4	2	4	292	0.00	29.769 
17:50	69.6	69.6	69.6	41	44.8	2	5	270	0.00	29.769 
17:55	69.3	69.3	69.3	43	45.8	2	4	270	0.00	29.770 
18:00	68.9	68.9	68.9	43	45.5	2	6	248	0.00	29.771 
18:05	68.6	68.6	68.6	44	45.8	1	4	270	0.00	29.772 
18:10	68.3	68.3	68.3	44	45.5	1	4	270	0.00	29.776 
18:15	68.3	68.3	68.3	45	46.1	1	5	292	0.00	29.782 
18:20	67.9	67.9	67.9	46	46.3	1	3	270	0.00	29.782 
18:25	67.8	67.8	67.8	46	46.3	1	5	270	0.00	29.785 
18:30	67.6	67.6	67.6	46	46.1	0	2	270	0.00	29.785 
18:35	67.4	67.4	67.4	46	45.9	1	3	292	0.00	29.786 
18:40	67.3	67.3	67.3	47	46.4	1	3	292	0.00	29.787 
18:45	67.1	67.1	67.1	48	46.7	1	3	292	0.00	29.793 
18:50	66.8	66.8	66.8	48	46.5	0	2	292	0.00	29.798 
18:55	66.4	66.4	66.4	50	47.2	0	4	315	0.00	29.802 
19:00	66.1	66.1	66.1	51	47.4	1	3	270	0.00	29.803 
19:05	66.0	66.0	66.0	52	47.9	0	3	315	0.00	29.805 
19:10	65.6	65.6	65.6	53	48.0	0	1	270	0.00	29.807 
19:15	65.3	65.3	65.3	54	48.2	0	1	270	0.00	29.809 
19:20	65.0	65.0	65.0	56	48.9	0	1	292	0.00	29.814 
19:25	64.7	64.7	64.7	57	49.1	0	0	---	0.00	29.815 
19:30	64.3	64.3	64.3	58	49.2	0	2	292	0.00	29.818 
19:35	64.2	64.2	64.2	58	49.1	0	2	338	0.00	29.820 
19:40	64.0	64.0	64.0	57	48.5	1	3	338	0.00	29.822 
19:45	64.0	64.0	64.0	57	48.5	0	3	270	0.00	29.829 
19:50	64.0	64.0	64.0	56	48.0	0	2	292	0.00	29.834 
19:55	63.9	63.9	63.9	56	47.9	0	1	292	0.00	29.835 
20:00	63.5	63.5	63.5	57	48.0	0	1	292	0.00	29.837 
20:05	63.4	63.4	63.4	57	47.9	0	2	292	0.00	29.838 
20:10	63.1	63.1	63.1	57	47.6	0	1	292	0.00	29.843 
20:15	62.9	62.9	62.9	57	47.4	0	1	292	0.00	29.848 
20:20	62.7	62.7	62.7	58	47.7	0	2	315	0.00	29.850 
20:25	62.6	62.6	62.6	58	47.6	1	2	315	0.00	29.851 
20:30	62.4	62.4	62.4	58	47.4	0	1	315	0.00	29.854 
20:35	62.3	62.3	62.3	58	47.3	0	2	315	0.00	29.858 
20:40	62.1	62.1	62.1	59	47.6	0	2	315	0.00	29.860 
20:45	61.8	61.8	61.8	59	47.3	0	2	315	0.00	29.863 
20:50	61.6	61.6	61.6	59	47.1	0	1	315	0.00	29.865 
20:55	61.3	61.3	61.3	61	47.7	0	1	315	0.00	29.867 
21:00	61.0	61.0	61.0	62	47.9	0	1	315	0.00	29.867 
21:05	60.5	60.5	60.5	63	47.8	0	1	315	0.00	29.867 
21:10	60.2	60.2	60.2	64	48.0	0	1	315	0.00	29.867 
21:15	60.1	60.1	60.1	64	47.9	0	1	315	0.00	29.867 
21:20	59.8	59.8	59.8	65	48.0	0	1	315	0.00	29.868 
21:25	59.5	59.5	59.5	65	47.7	0	1	315	0.00	29.869 
21:30	59.3	59.3	59.3	66	47.9	0	1	315	0.00	29.871 
21:35	59.2	59.2	59.2	66	47.8	0	1	315	0.00	29.874 
21:40	59.0	59.0	59.0	66	47.7	0	1	315	0.00	29.879 
21:45	58.9	58.9	58.9	66	47.6	0	1	315	0.00	29.883 
21:50	58.9	58.9	58.9	66	47.6	0	1	315	0.00	29.884 
21:55	58.9	58.9	58.9	65	47.2	0	2	315	0.00	29.885 
22:00	58.9	58.9	58.9	65	47.2	0	1	315	0.00	29.885 
22:05	58.7	58.7	58.7	65	47.0	0	1	315	0.00	29.886 
22:10	58.6	58.6	58.6	65	46.9	0	1	315	0.00	29.887 
22:15	58.4	58.4	58.4	66	47.1	0	1	315	0.00	29.890 
22:20	58.3	58.3	58.3	66	47.0	0	1	315	0.00	29.893 
22:25	58.0	58.0	58.0	66	46.7	0	1	315	0.00	29.896 
22:30	58.0	58.0	58.0	66	46.7	0	1	315	0.00	29.899 
22:35	57.8	57.8	57.8	67	46.9	0	1	315	0.00	29.900 
22:40	57.6	57.6	57.6	67	46.7	0	1	315	0.00	29.900 
22:45	57.5	57.5	57.5	68	47.0	0	0	---	0.00	29.901 
22:50	57.2	57.2	57.2	69	47.1	0	0	---	0.00	29.903 
22:55	57.0	57.0	57.0	69	46.9	0	0	---	0.00	29.903 
23:00	56.7	56.7	56.7	69	46.6	0	0	---	0.00	29.906 
23:05	56.3	56.3	56.3	70	46.6	0	0	---	0.00	29.906 
23:10	56.0	56.0	56.0	72	47.1	0	0	---	0.00	29.906 
23:15	55.6	55.6	55.6	73	47.1	0	0	---	0.00	29.910 
23:20	55.3	55.3	55.3	75	47.5	0	0	---	0.00	29.910 
23:25	55.0	55.0	55.0	74	46.9	0	0	---	0.00	29.910 
23:30	54.7	54.7	54.7	75	46.9	0	0	---	0.00	29.912 
23:35	54.5	54.5	54.5	76	47.1	0	0	---	0.00	29.912 
23:40	54.2	54.2	54.2	76	46.8	0	0	---	0.00	29.912 
23:45	54.1	54.1	54.1	77	47.0	0	0	---	0.00	29.915 
23:50	53.8	53.8	53.8	77	46.8	0	0	---	0.00	29.915 
23:55	53.6	53.6	53.6	77	46.6	0	0	---	0.00	29.915 

CoCoRaHS
IN-AL-39
A2 Web Hosting
Creative Commons License
GoDaddy
Look for:

loaded 2017-12-12 01:32:05 • last modified 2010-11-18 10:43:29
Privacy PolicyDisclaimer
• wx.awcolley.com is powered by PmWiki v.2002016 •
• all content (unless otherwise noted) © 2017 A W Colley